sensor_id;sensor_type;location;lat;lon;timestamp;P1;durP1;ratioP1;P2;durP2;ratioP2
1563;SDS011;775;51.958;7.976;2022-10-22T00:01:07;8.43;;;4.07;;
1563;SDS011;775;51.958;7.976;2022-10-22T00:03:34;7.53;;;4.33;;
1563;SDS011;775;51.958;7.976;2022-10-22T00:06:01;8.37;;;3.60;;
1563;SDS011;775;51.958;7.976;2022-10-22T00:08:30;8.67;;;4.40;;
1563;SDS011;775;51.958;7.976;2022-10-22T00:10:57;8.37;;;4.13;;
1563;SDS011;775;51.958;7.976;2022-10-22T00:13:24;7.50;;;4.10;;
1563;SDS011;775;51.958;7.976;2022-10-22T00:15:51;7.90;;;4.83;;
1563;SDS011;775;51.958;7.976;2022-10-22T00:18:18;8.03;;;3.90;;
1563;SDS011;775;51.958;7.976;2022-10-22T00:20:45;6.83;;;3.60;;
1563;SDS011;775;51.958;7.976;2022-10-22T00:23:12;7.60;;;3.93;;
1563;SDS011;775;51.958;7.976;2022-10-22T00:25:41;6.97;;;4.17;;
1563;SDS011;775;51.958;7.976;2022-10-22T00:28:08;7.40;;;3.93;;
1563;SDS011;775;51.958;7.976;2022-10-22T00:30:36;8.67;;;3.83;;
1563;SDS011;775;51.958;7.976;2022-10-22T00:33:03;6.53;;;3.13;;
1563;SDS011;775;51.958;7.976;2022-10-22T00:35:31;7.77;;;3.60;;
1563;SDS011;775;51.958;7.976;2022-10-22T00:37:58;8.70;;;3.60;;
1563;SDS011;775;51.958;7.976;2022-10-22T00:40:25;6.77;;;3.53;;
1563;SDS011;775;51.958;7.976;2022-10-22T00:42:53;6.47;;;3.70;;
1563;SDS011;775;51.958;7.976;2022-10-22T00:45:22;6.50;;;3.33;;
1563;SDS011;775;51.958;7.976;2022-10-22T00:47:50;6.80;;;3.10;;
1563;SDS011;775;51.958;7.976;2022-10-22T00:50:20;6.13;;;3.10;;
1563;SDS011;775;51.958;7.976;2022-10-22T00:52:48;8.13;;;3.13;;
1563;SDS011;775;51.958;7.976;2022-10-22T00:55:16;6.43;;;3.27;;
1563;SDS011;775;51.958;7.976;2022-10-22T00:57:43;6.03;;;3.20;;
1563;SDS011;775;51.958;7.976;2022-10-22T01:00:13;5.60;;;2.80;;
1563;SDS011;775;51.958;7.976;2022-10-22T01:02:40;7.50;;;4.37;;
1563;SDS011;775;51.958;7.976;2022-10-22T01:05:07;8.20;;;3.90;;
1563;SDS011;775;51.958;7.976;2022-10-22T01:07:35;5.47;;;2.87;;
1563;SDS011;775;51.958;7.976;2022-10-22T01:10:07;5.73;;;2.70;;
1563;SDS011;775;51.958;7.976;2022-10-22T01:12:41;7.27;;;2.90;;
1563;SDS011;775;51.958;7.976;2022-10-22T01:15:11;6.80;;;3.30;;
1563;SDS011;775;51.958;7.976;2022-10-22T01:17:44;6.43;;;3.40;;
1563;SDS011;775;51.958;7.976;2022-10-22T01:20:18;5.80;;;2.70;;
1563;SDS011;775;51.958;7.976;2022-10-22T01:22:51;7.40;;;3.00;;
1563;SDS011;775;51.958;7.976;2022-10-22T01:25:22;5.90;;;2.73;;
1563;SDS011;775;51.958;7.976;2022-10-22T01:27:56;6.53;;;3.10;;
1563;SDS011;775;51.958;7.976;2022-10-22T01:30:28;6.53;;;2.80;;
1563;SDS011;775;51.958;7.976;2022-10-22T01:32:56;7.90;;;2.97;;
1563;SDS011;775;51.958;7.976;2022-10-22T01:35:25;5.70;;;2.63;;
1563;SDS011;775;51.958;7.976;2022-10-22T01:37:54;7.00;;;3.23;;
1563;SDS011;775;51.958;7.976;2022-10-22T01:40:23;6.30;;;3.30;;
1563;SDS011;775;51.958;7.976;2022-10-22T01:42:54;7.13;;;3.20;;
1563;SDS011;775;51.958;7.976;2022-10-22T01:45:22;8.80;;;3.20;;
1563;SDS011;775;51.958;7.976;2022-10-22T01:47:53;6.37;;;3.20;;
1563;SDS011;775;51.958;7.976;2022-10-22T01:50:29;7.73;;;3.00;;
1563;SDS011;775;51.958;7.976;2022-10-22T01:55:41;8.10;;;3.57;;
1563;SDS011;775;51.958;7.976;2022-10-22T01:58:13;5.60;;;2.77;;
1563;SDS011;775;51.958;7.976;2022-10-22T02:00:45;5.70;;;2.53;;
1563;SDS011;775;51.958;7.976;2022-10-22T02:03:15;5.90;;;3.10;;
1563;SDS011;775;51.958;7.976;2022-10-22T02:05:48;6.97;;;3.30;;
1563;SDS011;775;51.958;7.976;2022-10-22T02:08:16;6.30;;;3.17;;
1563;SDS011;775;51.958;7.976;2022-10-22T02:10:45;5.90;;;3.00;;
1563;SDS011;775;51.958;7.976;2022-10-22T02:13:16;6.07;;;3.30;;
1563;SDS011;775;51.958;7.976;2022-10-22T02:15:44;5.83;;;3.13;;
1563;SDS011;775;51.958;7.976;2022-10-22T02:18:12;6.40;;;3.10;;
1563;SDS011;775;51.958;7.976;2022-10-22T02:20:41;5.90;;;3.03;;
1563;SDS011;775;51.958;7.976;2022-10-22T02:23:08;6.67;;;2.70;;
1563;SDS011;775;51.958;7.976;2022-10-22T02:25:37;7.23;;;3.33;;
1563;SDS011;775;51.958;7.976;2022-10-22T02:28:08;5.77;;;3.10;;
1563;SDS011;775;51.958;7.976;2022-10-22T02:30:37;7.20;;;2.60;;
1563;SDS011;775;51.958;7.976;2022-10-22T02:33:06;7.80;;;3.17;;
1563;SDS011;775;51.958;7.976;2022-10-22T02:35:34;7.43;;;3.03;;
1563;SDS011;775;51.958;7.976;2022-10-22T02:38:03;5.47;;;2.43;;
1563;SDS011;775;51.958;7.976;2022-10-22T02:40:31;6.67;;;3.57;;
1563;SDS011;775;51.958;7.976;2022-10-22T02:42:58;6.60;;;3.90;;
1563;SDS011;775;51.958;7.976;2022-10-22T02:45:25;6.17;;;2.97;;
1563;SDS011;775;51.958;7.976;2022-10-22T02:47:53;7.77;;;2.83;;
1563;SDS011;775;51.958;7.976;2022-10-22T02:50:20;9.17;;;3.03;;
1563;SDS011;775;51.958;7.976;2022-10-22T02:52:47;5.80;;;3.00;;
1563;SDS011;775;51.958;7.976;2022-10-22T02:55:16;6.50;;;3.20;;
1563;SDS011;775;51.958;7.976;2022-10-22T02:57:43;7.20;;;3.57;;
1563;SDS011;775;51.958;7.976;2022-10-22T03:00:10;7.47;;;3.40;;
1563;SDS011;775;51.958;7.976;2022-10-22T03:02:38;9.50;;;4.93;;
1563;SDS011;775;51.958;7.976;2022-10-22T03:05:05;7.60;;;3.90;;
1563;SDS011;775;51.958;7.976;2022-10-22T03:07:32;6.63;;;3.10;;
1563;SDS011;775;51.958;7.976;2022-10-22T03:10:00;10.63;;;3.90;;
1563;SDS011;775;51.958;7.976;2022-10-22T03:12:28;9.30;;;3.70;;
1563;SDS011;775;51.958;7.976;2022-10-22T03:14:55;7.80;;;3.40;;
1563;SDS011;775;51.958;7.976;2022-10-22T03:17:22;8.20;;;3.37;;
1563;SDS011;775;51.958;7.976;2022-10-22T03:19:49;7.73;;;3.40;;
1563;SDS011;775;51.958;7.976;2022-10-22T03:22:17;7.23;;;3.50;;
1563;SDS011;775;51.958;7.976;2022-10-22T03:24:46;7.13;;;3.60;;
1563;SDS011;775;51.958;7.976;2022-10-22T03:27:15;6.70;;;3.43;;
1563;SDS011;775;51.958;7.976;2022-10-22T03:29:44;5.80;;;3.00;;
1563;SDS011;775;51.958;7.976;2022-10-22T03:32:12;8.53;;;3.20;;
1563;SDS011;775;51.958;7.976;2022-10-22T03:34:39;6.47;;;3.07;;
1563;SDS011;775;51.958;7.976;2022-10-22T03:37:06;6.03;;;3.00;;
1563;SDS011;775;51.958;7.976;2022-10-22T03:39:33;7.10;;;3.40;;
1563;SDS011;775;51.958;7.976;2022-10-22T03:42:02;6.13;;;3.17;;
1563;SDS011;775;51.958;7.976;2022-10-22T03:44:29;6.20;;;2.73;;
1563;SDS011;775;51.958;7.976;2022-10-22T03:46:58;6.23;;;2.93;;
1563;SDS011;775;51.958;7.976;2022-10-22T03:49:25;7.60;;;3.83;;
1563;SDS011;775;51.958;7.976;2022-10-22T03:51:52;6.00;;;3.10;;
1563;SDS011;775;51.958;7.976;2022-10-22T03:54:19;7.17;;;3.57;;
1563;SDS011;775;51.958;7.976;2022-10-22T03:56:46;6.80;;;3.03;;
1563;SDS011;775;51.958;7.976;2022-10-22T03:59:13;6.90;;;3.20;;
1563;SDS011;775;51.958;7.976;2022-10-22T04:01:40;6.57;;;3.17;;
1563;SDS011;775;51.958;7.976;2022-10-22T04:04:09;8.20;;;3.20;;
1563;SDS011;775;51.958;7.976;2022-10-22T04:06:36;5.80;;;2.60;;
1563;SDS011;775;51.958;7.976;2022-10-22T04:09:03;7.40;;;3.30;;
1563;SDS011;775;51.958;7.976;2022-10-22T04:11:30;7.17;;;3.10;;
1563;SDS011;775;51.958;7.976;2022-10-22T04:13:57;7.10;;;3.67;;
1563;SDS011;775;51.958;7.976;2022-10-22T04:16:24;5.60;;;2.97;;
1563;SDS011;775;51.958;7.976;2022-10-22T04:18:55;7.30;;;4.10;;
1563;SDS011;775;51.958;7.976;2022-10-22T04:21:23;8.03;;;2.90;;
1563;SDS011;775;51.958;7.976;2022-10-22T04:23:51;5.97;;;3.23;;
1563;SDS011;775;51.958;7.976;2022-10-22T04:26:19;5.93;;;2.73;;
1563;SDS011;775;51.958;7.976;2022-10-22T04:28:46;7.33;;;2.97;;
1563;SDS011;775;51.958;7.976;2022-10-22T04:31:14;6.60;;;3.50;;
1563;SDS011;775;51.958;7.976;2022-10-22T04:33:41;6.90;;;2.87;;
1563;SDS011;775;51.958;7.976;2022-10-22T04:36:09;6.70;;;2.70;;
1563;SDS011;775;51.958;7.976;2022-10-22T04:38:38;5.30;;;2.40;;
1563;SDS011;775;51.958;7.976;2022-10-22T04:41:09;5.83;;;3.07;;
1563;SDS011;775;51.958;7.976;2022-10-22T04:43:36;6.00;;;2.63;;
1563;SDS011;775;51.958;7.976;2022-10-22T04:46:04;6.30;;;2.87;;
1563;SDS011;775;51.958;7.976;2022-10-22T04:48:33;5.70;;;2.60;;
1563;SDS011;775;51.958;7.976;2022-10-22T04:51:00;7.10;;;3.07;;
1563;SDS011;775;51.958;7.976;2022-10-22T04:53:27;6.90;;;3.20;;
1563;SDS011;775;51.958;7.976;2022-10-22T04:56:04;6.67;;;3.03;;
1563;SDS011;775;51.958;7.976;2022-10-22T04:58:31;6.80;;;3.10;;
1563;SDS011;775;51.958;7.976;2022-10-22T05:00:59;5.87;;;3.07;;
1563;SDS011;775;51.958;7.976;2022-10-22T05:03:26;8.63;;;2.63;;
1563;SDS011;775;51.958;7.976;2022-10-22T05:05:53;5.90;;;3.20;;
1563;SDS011;775;51.958;7.976;2022-10-22T05:08:20;5.93;;;3.03;;
1563;SDS011;775;51.958;7.976;2022-10-22T05:10:47;7.00;;;2.70;;
1563;SDS011;775;51.958;7.976;2022-10-22T05:13:15;6.00;;;3.00;;
1563;SDS011;775;51.958;7.976;2022-10-22T05:15:42;6.53;;;3.10;;
1563;SDS011;775;51.958;7.976;2022-10-22T05:18:09;6.23;;;3.10;;
1563;SDS011;775;51.958;7.976;2022-10-22T05:20:37;6.07;;;2.83;;
1563;SDS011;775;51.958;7.976;2022-10-22T05:23:05;6.00;;;3.60;;
1563;SDS011;775;51.958;7.976;2022-10-22T05:25:35;5.97;;;3.23;;
1563;SDS011;775;51.958;7.976;2022-10-22T05:28:02;5.90;;;3.00;;
1563;SDS011;775;51.958;7.976;2022-10-22T05:30:30;5.73;;;3.10;;
1563;SDS011;775;51.958;7.976;2022-10-22T05:32:57;5.70;;;2.60;;
1563;SDS011;775;51.958;7.976;2022-10-22T05:35:25;6.33;;;3.27;;
1563;SDS011;775;51.958;7.976;2022-10-22T05:37:52;6.47;;;3.40;;
1563;SDS011;775;51.958;7.976;2022-10-22T05:40:19;6.93;;;2.80;;
1563;SDS011;775;51.958;7.976;2022-10-22T05:42:46;6.33;;;3.10;;
1563;SDS011;775;51.958;7.976;2022-10-22T05:45:13;5.73;;;3.00;;
1563;SDS011;775;51.958;7.976;2022-10-22T05:47:41;7.13;;;2.80;;
1563;SDS011;775;51.958;7.976;2022-10-22T05:50:08;6.33;;;3.37;;
1563;SDS011;775;51.958;7.976;2022-10-22T05:52:35;5.43;;;2.60;;
1563;SDS011;775;51.958;7.976;2022-10-22T05:55:03;5.30;;;2.80;;
1563;SDS011;775;51.958;7.976;2022-10-22T05:57:30;6.53;;;3.00;;
1563;SDS011;775;51.958;7.976;2022-10-22T05:59:57;5.50;;;2.60;;
1563;SDS011;775;51.958;7.976;2022-10-22T06:02:24;6.07;;;2.90;;
1563;SDS011;775;51.958;7.976;2022-10-22T06:04:52;5.53;;;2.67;;
1563;SDS011;775;51.958;7.976;2022-10-22T06:07:20;6.97;;;3.17;;
1563;SDS011;775;51.958;7.976;2022-10-22T06:09:47;6.30;;;3.17;;
1563;SDS011;775;51.958;7.976;2022-10-22T06:12:14;7.40;;;3.73;;
1563;SDS011;775;51.958;7.976;2022-10-22T06:14:41;6.03;;;3.00;;
1563;SDS011;775;51.958;7.976;2022-10-22T06:17:08;5.90;;;3.13;;
1563;SDS011;775;51.958;7.976;2022-10-22T06:19:37;6.43;;;3.40;;
1563;SDS011;775;51.958;7.976;2022-10-22T06:22:05;7.50;;;3.00;;
1563;SDS011;775;51.958;7.976;2022-10-22T06:24:32;6.50;;;4.07;;
1563;SDS011;775;51.958;7.976;2022-10-22T06:26:59;8.50;;;3.80;;
1563;SDS011;775;51.958;7.976;2022-10-22T06:29:27;6.80;;;4.30;;
1563;SDS011;775;51.958;7.976;2022-10-22T06:31:54;9.77;;;4.90;;
1563;SDS011;775;51.958;7.976;2022-10-22T06:34:21;7.93;;;4.80;;
1563;SDS011;775;51.958;7.976;2022-10-22T06:36:48;8.93;;;4.57;;
1563;SDS011;775;51.958;7.976;2022-10-22T06:39:17;7.70;;;5.80;;
1563;SDS011;775;51.958;7.976;2022-10-22T06:41:44;11.13;;;5.70;;
1563;SDS011;775;51.958;7.976;2022-10-22T06:44:12;9.60;;;5.83;;
1563;SDS011;775;51.958;7.976;2022-10-22T06:46:39;8.13;;;5.60;;
1563;SDS011;775;51.958;7.976;2022-10-22T06:49:09;10.67;;;6.70;;
1563;SDS011;775;51.958;7.976;2022-10-22T06:51:37;7.03;;;4.80;;
1563;SDS011;775;51.958;7.976;2022-10-22T06:54:04;7.57;;;4.30;;
1563;SDS011;775;51.958;7.976;2022-10-22T06:56:32;7.27;;;4.23;;
1563;SDS011;775;51.958;7.976;2022-10-22T06:58:59;6.77;;;4.27;;
1563;SDS011;775;51.958;7.976;2022-10-22T07:01:27;6.10;;;3.67;;
1563;SDS011;775;51.958;7.976;2022-10-22T07:03:55;9.30;;;5.10;;
1563;SDS011;775;51.958;7.976;2022-10-22T07:06:22;7.80;;;3.83;;
1563;SDS011;775;51.958;7.976;2022-10-22T07:08:50;9.37;;;4.00;;
1563;SDS011;775;51.958;7.976;2022-10-22T07:11:18;8.93;;;4.60;;
1563;SDS011;775;51.958;7.976;2022-10-22T07:13:47;6.00;;;3.40;;
1563;SDS011;775;51.958;7.976;2022-10-22T07:16:14;8.70;;;4.23;;
1563;SDS011;775;51.958;7.976;2022-10-22T07:18:42;8.77;;;4.50;;
1563;SDS011;775;51.958;7.976;2022-10-22T07:21:10;8.70;;;4.30;;
1563;SDS011;775;51.958;7.976;2022-10-22T07:23:37;9.00;;;3.90;;
1563;SDS011;775;51.958;7.976;2022-10-22T07:26:05;12.23;;;4.90;;
1563;SDS011;775;51.958;7.976;2022-10-22T07:28:32;7.73;;;4.20;;
1563;SDS011;775;51.958;7.976;2022-10-22T07:31:01;6.80;;;4.17;;
1563;SDS011;775;51.958;7.976;2022-10-22T07:33:29;8.93;;;5.77;;
1563;SDS011;775;51.958;7.976;2022-10-22T07:35:56;9.53;;;4.17;;
1563;SDS011;775;51.958;7.976;2022-10-22T07:38:24;10.73;;;4.23;;
1563;SDS011;775;51.958;7.976;2022-10-22T07:40:51;7.70;;;4.07;;
1563;SDS011;775;51.958;7.976;2022-10-22T07:43:18;8.40;;;3.83;;
1563;SDS011;775;51.958;7.976;2022-10-22T07:45:45;7.43;;;4.43;;
1563;SDS011;775;51.958;7.976;2022-10-22T07:48:14;7.33;;;3.80;;
1563;SDS011;775;51.958;7.976;2022-10-22T07:50:41;7.80;;;4.40;;
1563;SDS011;775;51.958;7.976;2022-10-22T07:53:08;7.30;;;4.37;;
1563;SDS011;775;51.958;7.976;2022-10-22T07:55:35;7.50;;;4.70;;
1563;SDS011;775;51.958;7.976;2022-10-22T07:58:02;9.63;;;5.30;;
1563;SDS011;775;51.958;7.976;2022-10-22T08:00:29;12.00;;;5.13;;
1563;SDS011;775;51.958;7.976;2022-10-22T08:02:57;9.73;;;5.17;;
1563;SDS011;775;51.958;7.976;2022-10-22T08:05:25;8.47;;;4.80;;
1563;SDS011;775;51.958;7.976;2022-10-22T08:07:52;7.30;;;4.50;;
1563;SDS011;775;51.958;7.976;2022-10-22T08:10:19;8.83;;;4.30;;
1563;SDS011;775;51.958;7.976;2022-10-22T08:12:46;11.73;;;5.73;;
1563;SDS011;775;51.958;7.976;2022-10-22T08:15:13;10.60;;;5.13;;
1563;SDS011;775;51.958;7.976;2022-10-22T08:17:40;8.70;;;5.50;;
1563;SDS011;775;51.958;7.976;2022-10-22T08:20:08;12.43;;;6.07;;
1563;SDS011;775;51.958;7.976;2022-10-22T08:22:36;13.97;;;6.27;;
1563;SDS011;775;51.958;7.976;2022-10-22T08:25:04;8.60;;;5.50;;
1563;SDS011;775;51.958;7.976;2022-10-22T08:27:31;10.70;;;5.00;;
1563;SDS011;775;51.958;7.976;2022-10-22T08:29:58;9.77;;;4.73;;
1563;SDS011;775;51.958;7.976;2022-10-22T08:32:25;8.90;;;5.10;;
1563;SDS011;775;51.958;7.976;2022-10-22T08:34:52;11.23;;;4.60;;
1563;SDS011;775;51.958;7.976;2022-10-22T08:37:19;13.23;;;5.00;;
1563;SDS011;775;51.958;7.976;2022-10-22T08:39:48;8.53;;;4.10;;
1563;SDS011;775;51.958;7.976;2022-10-22T08:42:22;11.87;;;4.93;;
1563;SDS011;775;51.958;7.976;2022-10-22T08:44:55;9.60;;;3.87;;
1563;SDS011;775;51.958;7.976;2022-10-22T08:47:30;8.57;;;4.33;;
1563;SDS011;775;51.958;7.976;2022-10-22T08:49:59;8.37;;;4.90;;
1563;SDS011;775;51.958;7.976;2022-10-22T08:52:27;10.60;;;4.33;;
1563;SDS011;775;51.958;7.976;2022-10-22T08:54:56;11.27;;;4.20;;
1563;SDS011;775;51.958;7.976;2022-10-22T09:00:10;9.50;;;4.80;;
1563;SDS011;775;51.958;7.976;2022-10-22T09:02:42;12.47;;;4.70;;
1563;SDS011;775;51.958;7.976;2022-10-22T09:05:14;7.97;;;4.20;;
1563;SDS011;775;51.958;7.976;2022-10-22T09:07:42;9.47;;;4.70;;
1563;SDS011;775;51.958;7.976;2022-10-22T09:10:15;8.90;;;3.90;;
1563;SDS011;775;51.958;7.976;2022-10-22T09:12:43;9.83;;;4.57;;
1563;SDS011;775;51.958;7.976;2022-10-22T09:15:13;10.50;;;4.47;;
1563;SDS011;775;51.958;7.976;2022-10-22T09:17:44;11.57;;;4.30;;
1563;SDS011;775;51.958;7.976;2022-10-22T09:20:16;7.30;;;3.70;;
1563;SDS011;775;51.958;7.976;2022-10-22T09:22:51;9.27;;;3.50;;
1563;SDS011;775;51.958;7.976;2022-10-22T09:25:23;9.90;;;4.00;;
1563;SDS011;775;51.958;7.976;2022-10-22T09:27:51;8.70;;;3.30;;
1563;SDS011;775;51.958;7.976;2022-10-22T09:30:23;16.23;;;4.10;;
1563;SDS011;775;51.958;7.976;2022-10-22T09:32:50;9.00;;;2.87;;
1563;SDS011;775;51.958;7.976;2022-10-22T09:35:21;8.40;;;3.00;;
1563;SDS011;775;51.958;7.976;2022-10-22T09:37:50;8.83;;;3.00;;
1563;SDS011;775;51.958;7.976;2022-10-22T09:40:17;13.80;;;5.63;;
1563;SDS011;775;51.958;7.976;2022-10-22T09:42:45;9.40;;;3.13;;
1563;SDS011;775;51.958;7.976;2022-10-22T09:45:17;11.37;;;3.50;;
1563;SDS011;775;51.958;7.976;2022-10-22T09:47:45;8.33;;;2.90;;
1563;SDS011;775;51.958;7.976;2022-10-22T09:50:17;7.17;;;2.27;;
1563;SDS011;775;51.958;7.976;2022-10-22T09:52:45;10.90;;;3.63;;
1563;SDS011;775;51.958;7.976;2022-10-22T09:55:12;11.23;;;2.83;;
1563;SDS011;775;51.958;7.976;2022-10-22T09:57:40;9.50;;;3.33;;
1563;SDS011;775;51.958;7.976;2022-10-22T10:00:09;9.57;;;2.33;;
1563;SDS011;775;51.958;7.976;2022-10-22T10:02:38;6.77;;;2.30;;
1563;SDS011;775;51.958;7.976;2022-10-22T10:05:06;10.23;;;3.03;;
1563;SDS011;775;51.958;7.976;2022-10-22T10:07:34;7.20;;;2.60;;
1563;SDS011;775;51.958;7.976;2022-10-22T10:10:02;6.17;;;2.57;;
1563;SDS011;775;51.958;7.976;2022-10-22T10:12:37;6.83;;;2.80;;
1563;SDS011;775;51.958;7.976;2022-10-22T10:15:13;7.33;;;3.77;;
1563;SDS011;775;51.958;7.976;2022-10-22T10:17:45;8.57;;;3.63;;
1563;SDS011;775;51.958;7.976;2022-10-22T10:20:19;10.97;;;3.30;;
1563;SDS011;775;51.958;7.976;2022-10-22T10:22:52;6.30;;;2.90;;
1563;SDS011;775;51.958;7.976;2022-10-22T10:28:06;6.80;;;2.60;;
1563;SDS011;775;51.958;7.976;2022-10-22T10:30:37;7.83;;;3.07;;
1563;SDS011;775;51.958;7.976;2022-10-22T10:33:14;9.63;;;2.47;;
1563;SDS011;775;51.958;7.976;2022-10-22T10:35:45;7.47;;;2.13;;
1563;SDS011;775;51.958;7.976;2022-10-22T10:38:22;10.43;;;2.57;;
1563;SDS011;775;51.958;7.976;2022-10-22T10:40:53;13.50;;;2.73;;
1563;SDS011;775;51.958;7.976;2022-10-22T10:43:24;8.00;;;2.63;;
1563;SDS011;775;51.958;7.976;2022-10-22T10:45:59;9.57;;;3.10;;
1563;SDS011;775;51.958;7.976;2022-10-22T10:48:37;6.80;;;2.30;;
1563;SDS011;775;51.958;7.976;2022-10-22T10:51:11;9.40;;;2.83;;
1563;SDS011;775;51.958;7.976;2022-10-22T10:53:48;8.00;;;3.30;;
1563;SDS011;775;51.958;7.976;2022-10-22T10:56:22;7.23;;;2.50;;
1563;SDS011;775;51.958;7.976;2022-10-22T10:58:53;7.23;;;2.10;;
1563;SDS011;775;51.958;7.976;2022-10-22T11:01:26;6.37;;;2.33;;
1563;SDS011;775;51.958;7.976;2022-10-22T11:04:03;12.57;;;2.73;;
1563;SDS011;775;51.958;7.976;2022-10-22T11:06:33;7.80;;;2.67;;
1563;SDS011;775;51.958;7.976;2022-10-22T11:09:02;9.67;;;2.53;;
1563;SDS011;775;51.958;7.976;2022-10-22T11:11:32;8.43;;;2.17;;
1563;SDS011;775;51.958;7.976;2022-10-22T11:14:01;12.13;;;3.43;;
1563;SDS011;775;51.958;7.976;2022-10-22T11:16:31;8.43;;;2.47;;
1563;SDS011;775;51.958;7.976;2022-10-22T11:19:02;9.07;;;1.70;;
1563;SDS011;775;51.958;7.976;2022-10-22T11:21:31;7.63;;;1.70;;
1563;SDS011;775;51.958;7.976;2022-10-22T11:24:02;6.10;;;1.63;;
1563;SDS011;775;51.958;7.976;2022-10-22T11:26:35;12.47;;;2.50;;
1563;SDS011;775;51.958;7.976;2022-10-22T11:29:03;7.03;;;2.03;;
1563;SDS011;775;51.958;7.976;2022-10-22T11:31:34;8.20;;;2.73;;
1563;SDS011;775;51.958;7.976;2022-10-22T11:34:03;7.73;;;2.73;;
1563;SDS011;775;51.958;7.976;2022-10-22T11:36:31;6.80;;;2.17;;
1563;SDS011;775;51.958;7.976;2022-10-22T11:39:00;6.67;;;2.07;;
1563;SDS011;775;51.958;7.976;2022-10-22T11:41:28;9.00;;;2.80;;
1563;SDS011;775;51.958;7.976;2022-10-22T11:44:04;7.67;;;2.10;;
1563;SDS011;775;51.958;7.976;2022-10-22T11:46:39;8.03;;;3.00;;
1563;SDS011;775;51.958;7.976;2022-10-22T11:49:21;7.70;;;2.93;;
1563;SDS011;775;51.958;7.976;2022-10-22T11:51:49;8.40;;;2.37;;
1563;SDS011;775;51.958;7.976;2022-10-22T11:54:27;7.13;;;2.27;;
1563;SDS011;775;51.958;7.976;2022-10-22T11:56:57;6.43;;;2.03;;
1563;SDS011;775;51.958;7.976;2022-10-22T11:59:33;6.97;;;2.30;;
1563;SDS011;775;51.958;7.976;2022-10-22T12:02:19;7.40;;;3.07;;
1563;SDS011;775;51.958;7.976;2022-10-22T12:04:48;8.93;;;2.63;;
1563;SDS011;775;51.958;7.976;2022-10-22T12:07:29;9.27;;;2.47;;
1563;SDS011;775;51.958;7.976;2022-10-22T12:09:57;9.63;;;2.40;;
1563;SDS011;775;51.958;7.976;2022-10-22T12:12:24;7.20;;;2.57;;
1563;SDS011;775;51.958;7.976;2022-10-22T12:14:53;10.23;;;2.50;;
1563;SDS011;775;51.958;7.976;2022-10-22T12:17:22;6.33;;;2.20;;
1563;SDS011;775;51.958;7.976;2022-10-22T12:19:50;9.90;;;2.30;;
1563;SDS011;775;51.958;7.976;2022-10-22T12:22:22;8.10;;;2.33;;
1563;SDS011;775;51.958;7.976;2022-10-22T12:24:50;7.57;;;1.50;;
1563;SDS011;775;51.958;7.976;2022-10-22T12:27:19;6.40;;;3.20;;
1563;SDS011;775;51.958;7.976;2022-10-22T12:29:47;9.87;;;2.90;;
1563;SDS011;775;51.958;7.976;2022-10-22T12:32:15;10.83;;;1.77;;
1563;SDS011;775;51.958;7.976;2022-10-22T12:34:46;7.80;;;2.43;;
1563;SDS011;775;51.958;7.976;2022-10-22T12:37:14;7.13;;;1.80;;
1563;SDS011;775;51.958;7.976;2022-10-22T12:39:41;5.20;;;1.50;;
1563;SDS011;775;51.958;7.976;2022-10-22T12:42:11;7.23;;;2.07;;
1563;SDS011;775;51.958;7.976;2022-10-22T12:44:38;7.07;;;2.00;;
1563;SDS011;775;51.958;7.976;2022-10-22T12:47:05;5.30;;;1.37;;
1563;SDS011;775;51.958;7.976;2022-10-22T12:49:34;6.10;;;1.90;;
1563;SDS011;775;51.958;7.976;2022-10-22T12:52:04;4.80;;;1.60;;
1563;SDS011;775;51.958;7.976;2022-10-22T12:54:32;7.70;;;2.43;;
1563;SDS011;775;51.958;7.976;2022-10-22T12:57:00;7.00;;;1.97;;
1563;SDS011;775;51.958;7.976;2022-10-22T12:59:28;6.33;;;2.20;;
1563;SDS011;775;51.958;7.976;2022-10-22T13:01:58;8.73;;;2.70;;
1563;SDS011;775;51.958;7.976;2022-10-22T13:04:32;7.57;;;2.57;;
1563;SDS011;775;51.958;7.976;2022-10-22T13:07:05;5.80;;;2.27;;
1563;SDS011;775;51.958;7.976;2022-10-22T13:09:40;7.77;;;2.70;;
1563;SDS011;775;51.958;7.976;2022-10-22T13:12:08;7.60;;;2.43;;
1563;SDS011;775;51.958;7.976;2022-10-22T13:14:40;6.10;;;2.10;;
1563;SDS011;775;51.958;7.976;2022-10-22T13:17:09;7.53;;;2.57;;
1563;SDS011;775;51.958;7.976;2022-10-22T13:19:37;7.47;;;2.30;;
1563;SDS011;775;51.958;7.976;2022-10-22T13:24:49;9.63;;;2.60;;
1563;SDS011;775;51.958;7.976;2022-10-22T13:27:16;9.50;;;2.63;;
1563;SDS011;775;51.958;7.976;2022-10-22T13:29:43;8.60;;;2.30;;
1563;SDS011;775;51.958;7.976;2022-10-22T13:32:18;16.20;;;3.70;;
1563;SDS011;775;51.958;7.976;2022-10-22T13:34:48;7.33;;;3.03;;
1563;SDS011;775;51.958;7.976;2022-10-22T13:37:15;6.20;;;2.17;;
1563;SDS011;775;51.958;7.976;2022-10-22T13:39:42;8.27;;;3.10;;
1563;SDS011;775;51.958;7.976;2022-10-22T13:42:11;5.83;;;2.73;;
1563;SDS011;775;51.958;7.976;2022-10-22T13:44:38;8.50;;;3.10;;
1563;SDS011;775;51.958;7.976;2022-10-22T13:47:07;6.20;;;2.63;;
1563;SDS011;775;51.958;7.976;2022-10-22T13:49:36;11.93;;;3.50;;
1563;SDS011;775;51.958;7.976;2022-10-22T13:52:07;9.60;;;2.90;;
1563;SDS011;775;51.958;7.976;2022-10-22T13:54:35;13.60;;;3.20;;
1563;SDS011;775;51.958;7.976;2022-10-22T13:57:04;9.40;;;2.67;;
1563;SDS011;775;51.958;7.976;2022-10-22T13:59:35;5.90;;;2.97;;
1563;SDS011;775;51.958;7.976;2022-10-22T14:02:06;8.50;;;2.60;;
1563;SDS011;775;51.958;7.976;2022-10-22T14:04:35;9.33;;;4.10;;
1563;SDS011;775;51.958;7.976;2022-10-22T14:07:04;9.67;;;3.87;;
1563;SDS011;775;51.958;7.976;2022-10-22T14:09:34;9.60;;;3.77;;
1563;SDS011;775;51.958;7.976;2022-10-22T14:12:04;7.70;;;2.60;;
1563;SDS011;775;51.958;7.976;2022-10-22T14:14:36;8.67;;;2.90;;
1563;SDS011;775;51.958;7.976;2022-10-22T14:17:03;6.53;;;2.80;;
1563;SDS011;775;51.958;7.976;2022-10-22T14:19:30;8.97;;;2.83;;
1563;SDS011;775;51.958;7.976;2022-10-22T14:21:57;10.70;;;2.50;;
1563;SDS011;775;51.958;7.976;2022-10-22T14:24:24;8.53;;;2.93;;
1563;SDS011;775;51.958;7.976;2022-10-22T14:26:52;10.60;;;3.03;;
1563;SDS011;775;51.958;7.976;2022-10-22T14:29:19;7.03;;;2.70;;
1563;SDS011;775;51.958;7.976;2022-10-22T14:31:47;10.50;;;3.37;;
1563;SDS011;775;51.958;7.976;2022-10-22T14:34:14;12.97;;;3.70;;
1563;SDS011;775;51.958;7.976;2022-10-22T14:36:41;8.87;;;2.60;;
1563;SDS011;775;51.958;7.976;2022-10-22T14:39:08;13.47;;;3.33;;
1563;SDS011;775;51.958;7.976;2022-10-22T14:41:36;8.43;;;2.50;;
1563;SDS011;775;51.958;7.976;2022-10-22T14:44:03;15.73;;;3.03;;
1563;SDS011;775;51.958;7.976;2022-10-22T14:46:30;14.13;;;2.43;;
1563;SDS011;775;51.958;7.976;2022-10-22T14:48:59;8.40;;;2.27;;
1563;SDS011;775;51.958;7.976;2022-10-22T14:51:26;9.27;;;2.70;;
1563;SDS011;775;51.958;7.976;2022-10-22T14:53:53;10.37;;;2.33;;
1563;SDS011;775;51.958;7.976;2022-10-22T14:56:21;8.27;;;2.40;;
1563;SDS011;775;51.958;7.976;2022-10-22T14:58:48;10.10;;;2.23;;
1563;SDS011;775;51.958;7.976;2022-10-22T15:01:15;11.33;;;2.27;;
1563;SDS011;775;51.958;7.976;2022-10-22T15:03:42;7.43;;;1.90;;
1563;SDS011;775;51.958;7.976;2022-10-22T15:06:11;6.03;;;2.10;;
1563;SDS011;775;51.958;7.976;2022-10-22T15:08:38;6.50;;;2.60;;
1563;SDS011;775;51.958;7.976;2022-10-22T15:11:05;6.73;;;2.17;;
1563;SDS011;775;51.958;7.976;2022-10-22T15:13:33;8.00;;;2.17;;
1563;SDS011;775;51.958;7.976;2022-10-22T15:16:00;10.10;;;1.80;;
1563;SDS011;775;51.958;7.976;2022-10-22T15:18:27;6.70;;;2.10;;
1563;SDS011;775;51.958;7.976;2022-10-22T15:20:55;5.17;;;2.30;;
1563;SDS011;775;51.958;7.976;2022-10-22T15:23:24;6.90;;;2.10;;
1563;SDS011;775;51.958;7.976;2022-10-22T15:25:51;6.93;;;2.10;;
1563;SDS011;775;51.958;7.976;2022-10-22T15:28:18;6.90;;;1.67;;
1563;SDS011;775;51.958;7.976;2022-10-22T15:30:50;6.67;;;1.67;;
1563;SDS011;775;51.958;7.976;2022-10-22T15:33:17;5.90;;;1.73;;
1563;SDS011;775;51.958;7.976;2022-10-22T15:35:44;7.10;;;2.23;;
1563;SDS011;775;51.958;7.976;2022-10-22T15:38:12;6.20;;;1.80;;
1563;SDS011;775;51.958;7.976;2022-10-22T15:40:40;7.20;;;1.83;;
1563;SDS011;775;51.958;7.976;2022-10-22T15:43:07;5.20;;;1.70;;
1563;SDS011;775;51.958;7.976;2022-10-22T15:45:34;7.13;;;1.90;;
1563;SDS011;775;51.958;7.976;2022-10-22T15:48:01;7.20;;;2.67;;